CPA233 AYPY-PHNL
Flight info
| Callsign | CPA233 |
|---|---|
| Flight time | N/A |
| Altitude | 39000 |
| Route | RUPNO H422 LUNTO B589 MAJ R584 CHOKO OPACA4 |
| Aircraft | A333/H-SDE3GHIJ2J3J5M1RVWXY/LB2D1 |
Departure
| Time | 2026-05-08 08:47 |
|---|---|
| Airport | Port Moresby Jacksons International Airport (AYPY) |
Arrival
| Time | N/A |
|---|---|
| Airport | Daniel K. Inouye International Airport (PHNL) |
| Time | Latitude | Longitude | Altitude | Speed | Heading |
|---|---|---|---|---|---|
| 2026-05-08 08:28 | -9.43770 | 147.21156 | 141 ft | 0 kts | 239° |
| 2026-05-08 08:37 | -9.43765 | 147.21166 | 141 ft | 2 kts | 239° |
| 2026-05-08 08:38 | -9.43757 | 147.21178 | 141 ft | 2 kts | 239° |
| 2026-05-08 08:38 | -9.43750 | 147.21191 | 141 ft | 2 kts | 241° |
| 2026-05-08 08:38 | -9.43743 | 147.21205 | 141 ft | 2 kts | 244° |
| 2026-05-08 08:38 | -9.43736 | 147.21217 | 141 ft | 2 kts | 246° |
| 2026-05-08 08:39 | -9.43730 | 147.21231 | 141 ft | 2 kts | 247° |
| 2026-05-08 08:39 | -9.43725 | 147.21246 | 141 ft | 2 kts | 247° |
| 2026-05-08 08:39 | -9.43718 | 147.21260 | 141 ft | 2 kts | 246° |
| 2026-05-08 08:39 | -9.43712 | 147.21274 | 141 ft | 2 kts | 254° |
| 2026-05-08 08:40 | -9.43710 | 147.21287 | 141 ft | 2 kts | 271° |
| 2026-05-08 08:40 | -9.43712 | 147.21303 | 141 ft | 2 kts | 285° |
| 2026-05-08 08:40 | -9.43717 | 147.21317 | 141 ft | 2 kts | 300° |
| 2026-05-08 08:40 | -9.43725 | 147.21329 | 141 ft | 2 kts | 314° |
| 2026-05-08 08:41 | -9.43736 | 147.21338 | 141 ft | 1 kts | 328° |
| 2026-05-08 08:41 | -9.43740 | 147.21341 | 141 ft | 0 kts | 329° |
| 2026-05-08 08:44 | -9.43719 | 147.21329 | 141 ft | 6 kts | 326° |
| 2026-05-08 08:44 | -9.43665 | 147.21291 | 141 ft | 12 kts | 326° |
| 2026-05-08 08:44 | -9.43571 | 147.21228 | 141 ft | 19 kts | 328° |
| 2026-05-08 08:45 | -9.43441 | 147.21149 | 141 ft | 24 kts | 329° |
| 2026-05-08 08:45 | -9.43329 | 147.21088 | 141 ft | 10 kts | 348° |
| 2026-05-08 08:45 | -9.43265 | 147.21123 | 142 ft | 11 kts | 49° |
| 2026-05-08 08:45 | -9.43222 | 147.21190 | 142 ft | 11 kts | 60° |
| 2026-05-08 08:46 | -9.43181 | 147.21260 | 142 ft | 11 kts | 59° |
| 2026-05-08 08:46 | -9.43138 | 147.21332 | 142 ft | 12 kts | 58° |
| 2026-05-08 08:46 | -9.43117 | 147.21407 | 142 ft | 10 kts | 121° |
| 2026-05-08 08:46 | -9.43174 | 147.21446 | 142 ft | 10 kts | 149° |
| 2026-05-08 08:47 | -9.43369 | 147.21564 | 142 ft | 69 kts | 148° |
| 2026-05-08 08:47 | -9.44008 | 147.21959 | 141 ft | 143 kts | 148° |
| 2026-05-08 08:47 | -9.44983 | 147.22594 | 480 ft | 173 kts | 144° |
| 2026-05-08 08:47 | -9.45928 | 147.23286 | 1351 ft | 169 kts | 138° |
| 2026-05-08 08:48 | -9.46515 | 147.24242 | 2204 ft | 160 kts | 100° |
| 2026-05-08 08:48 | -9.46294 | 147.25291 | 2792 ft | 162 kts | 55° |
| 2026-05-08 08:48 | -9.45362 | 147.25937 | 3388 ft | 165 kts | 28° |
| 2026-05-08 08:48 | -9.44325 | 147.26430 | 3907 ft | 172 kts | 30° |
| 2026-05-08 08:49 | -9.43232 | 147.26976 | 4494 ft | 178 kts | 32° |
| 2026-05-08 08:49 | -9.42209 | 147.27652 | 5265 ft | 176 kts | 37° |
| 2026-05-08 08:49 | -9.41113 | 147.28229 | 5951 ft | 180 kts | 27° |
| 2026-05-08 08:49 | -9.40056 | 147.28891 | 6548 ft | 186 kts | 43° |
| 2026-05-08 08:50 | -9.39117 | 147.29868 | 7048 ft | 201 kts | 50° |
| 2026-05-08 08:50 | -9.38215 | 147.31010 | 7560 ft | 216 kts | 54° |
| 2026-05-08 08:50 | -9.37306 | 147.32283 | 7992 ft | 236 kts | 55° |
| 2026-05-08 08:50 | -9.36323 | 147.33716 | 8523 ft | 259 kts | 56° |
| 2026-05-08 08:51 | -9.35282 | 147.35255 | 9222 ft | 277 kts | 56° |
| 2026-05-08 08:51 | -9.34159 | 147.36925 | 9932 ft | 296 kts | 57° |
| 2026-05-08 08:51 | -9.32997 | 147.38655 | 10908 ft | 302 kts | 57° |
| 2026-05-08 08:51 | -9.31819 | 147.40410 | 11967 ft | 305 kts | 57° |
| 2026-05-08 08:52 | -9.30622 | 147.42194 | 12852 ft | 313 kts | 57° |
| 2026-05-08 08:52 | -9.29396 | 147.44019 | 13777 ft | 318 kts | 56° |
| 2026-05-08 08:52 | -9.28150 | 147.45874 | 14742 ft | 321 kts | 56° |
| 2026-05-08 08:52 | -9.26895 | 147.47743 | 15608 ft | 325 kts | 56° |
| 2026-05-08 08:53 | -9.25628 | 147.49629 | 16439 ft | 329 kts | 56° |
| 2026-05-08 08:53 | -9.24330 | 147.51559 | 17230 ft | 334 kts | 55° |
| 2026-05-08 08:53 | -9.23024 | 147.53503 | 18015 ft | 337 kts | 55° |
| 2026-05-08 08:53 | -9.21709 | 147.55460 | 18721 ft | 342 kts | 55° |
| 2026-05-08 08:54 | -9.20356 | 147.57471 | 19385 ft | 348 kts | 55° |
| 2026-05-08 08:54 | -9.18998 | 147.59491 | 20041 ft | 353 kts | 55° |
| 2026-05-08 08:54 | -9.17604 | 147.61565 | 20692 ft | 357 kts | 55° |
| 2026-05-08 08:54 | -9.16203 | 147.63644 | 21265 ft | 362 kts | 54° |
| 2026-05-08 08:55 | -9.14773 | 147.65767 | 21857 ft | 367 kts | 54° |
| 2026-05-08 08:55 | -9.13333 | 147.67905 | 22417 ft | 372 kts | 54° |
| 2026-05-08 08:55 | -9.11878 | 147.70065 | 22983 ft | 376 kts | 54° |
| 2026-05-08 08:55 | -9.10406 | 147.72253 | 23558 ft | 379 kts | 54° |
| 2026-05-08 08:56 | -9.08904 | 147.74484 | 24133 ft | 382 kts | 54° |
| 2026-05-08 08:56 | -9.07413 | 147.76698 | 24663 ft | 385 kts | 54° |
| 2026-05-08 08:56 | -9.05905 | 147.78938 | 25189 ft | 389 kts | 54° |
| 2026-05-08 08:56 | -9.04377 | 147.81207 | 25687 ft | 392 kts | 54° |
| 2026-05-08 08:57 | -9.02829 | 147.83505 | 26164 ft | 396 kts | 54° |
| 2026-05-08 08:57 | -9.01280 | 147.85803 | 26618 ft | 400 kts | 54° |
| 2026-05-08 08:57 | -8.99709 | 147.88136 | 27061 ft | 403 kts | 54° |
| 2026-05-08 08:57 | -8.98115 | 147.90498 | 27487 ft | 407 kts | 54° |
| 2026-05-08 08:58 | -8.96508 | 147.92883 | 27909 ft | 411 kts | 54° |
| 2026-05-08 08:58 | -8.94890 | 147.95281 | 28331 ft | 414 kts | 54° |
| 2026-05-08 08:58 | -8.93286 | 147.97661 | 28721 ft | 417 kts | 54° |
| 2026-05-08 08:58 | -8.91637 | 148.00105 | 29188 ft | 418 kts | 54° |
| 2026-05-08 08:59 | -8.89993 | 148.02545 | 29635 ft | 420 kts | 54° |
| 2026-05-08 08:59 | -8.88349 | 148.04982 | 30023 ft | 422 kts | 54° |
| 2026-05-08 08:59 | -8.86686 | 148.07443 | 30426 ft | 424 kts | 54° |
| 2026-05-08 08:59 | -8.85036 | 148.09889 | 30805 ft | 425 kts | 54° |
| 2026-05-08 09:00 | -8.83353 | 148.12381 | 31176 ft | 427 kts | 54° |
| 2026-05-08 09:00 | -8.81690 | 148.14845 | 31522 ft | 429 kts | 54° |
| 2026-05-08 09:00 | -8.79987 | 148.17364 | 31859 ft | 431 kts | 54° |
| 2026-05-08 09:00 | -8.78306 | 148.19856 | 32173 ft | 433 kts | 53° |
| 2026-05-08 09:01 | -8.76611 | 148.22362 | 32438 ft | 436 kts | 53° |
| 2026-05-08 09:01 | -8.74885 | 148.24922 | 32754 ft | 439 kts | 55° |
| 2026-05-08 09:01 | -8.73410 | 148.27644 | 33035 ft | 443 kts | 62° |
| 2026-05-08 09:01 | -8.72026 | 148.30417 | 33366 ft | 445 kts | 61° |
| 2026-05-08 09:02 | -8.70621 | 148.33211 | 33710 ft | 446 kts | 61° |
| 2026-05-08 09:02 | -8.69213 | 148.36005 | 34009 ft | 447 kts | 61° |
| 2026-05-08 09:02 | -8.67814 | 148.38780 | 34298 ft | 449 kts | 61° |
| 2026-05-08 09:02 | -8.66400 | 148.41586 | 34579 ft | 450 kts | 61° |
| 2026-05-08 09:03 | -8.64976 | 148.44408 | 34846 ft | 451 kts | 61° |
| 2026-05-08 09:03 | -8.63548 | 148.47238 | 35057 ft | 453 kts | 61° |
| 2026-05-08 09:03 | -8.62110 | 148.50089 | 35242 ft | 455 kts | 61° |
| 2026-05-08 09:03 | -8.60665 | 148.52951 | 35511 ft | 456 kts | 61° |
| 2026-05-08 09:04 | -8.59211 | 148.55832 | 35760 ft | 456 kts | 61° |
| 2026-05-08 09:04 | -8.57776 | 148.58673 | 35928 ft | 458 kts | 61° |
| 2026-05-08 09:04 | -8.56320 | 148.61557 | 36116 ft | 459 kts | 61° |
| 2026-05-08 09:04 | -8.54875 | 148.64418 | 36317 ft | 460 kts | 61° |
| 2026-05-08 09:05 | -8.53406 | 148.67325 | 36470 ft | 461 kts | 61° |
| 2026-05-08 09:05 | -8.51965 | 148.70178 | 36622 ft | 462 kts | 61° |
| 2026-05-08 09:05 | -8.50504 | 148.73065 | 36774 ft | 463 kts | 61° |
| 2026-05-08 09:05 | -8.49036 | 148.75970 | 36918 ft | 463 kts | 61° |
| 2026-05-08 09:06 | -8.47568 | 148.78876 | 37071 ft | 463 kts | 61° |
| 2026-05-08 09:06 | -8.46116 | 148.81744 | 37215 ft | 464 kts | 61° |
| 2026-05-08 09:06 | -8.44648 | 148.84644 | 37360 ft | 464 kts | 61° |
| 2026-05-08 09:06 | -8.43180 | 148.87546 | 37506 ft | 463 kts | 61° |
| 2026-05-08 09:07 | -8.41705 | 148.90462 | 37653 ft | 463 kts | 61° |
| 2026-05-08 09:07 | -8.40241 | 148.93352 | 37799 ft | 463 kts | 61° |
| 2026-05-08 09:07 | -8.38780 | 148.96237 | 37944 ft | 462 kts | 61° |
| 2026-05-08 09:07 | -8.37322 | 148.99118 | 38090 ft | 461 kts | 61° |
| 2026-05-08 09:08 | -8.35879 | 149.01964 | 38233 ft | 460 kts | 61° |
| 2026-05-08 09:08 | -8.34427 | 149.04833 | 38377 ft | 459 kts | 61° |
| 2026-05-08 09:08 | -8.32976 | 149.07693 | 38539 ft | 458 kts | 61° |
| 2026-05-08 09:08 | -8.31507 | 149.10590 | 38702 ft | 457 kts | 61° |
| 2026-05-08 09:09 | -8.30065 | 149.13434 | 38857 ft | 457 kts | 61° |
| 2026-05-08 09:09 | -8.28616 | 149.16290 | 38831 ft | 461 kts | 62° |
| 2026-05-08 09:09 | -8.25679 | 149.22080 | 38862 ft | 465 kts | 62° |
| 2026-05-08 09:10 | -8.22721 | 149.27907 | 38863 ft | 469 kts | 62° |
| 2026-05-08 09:10 | -8.19752 | 149.33754 | 38857 ft | 471 kts | 62° |
| 2026-05-08 09:11 | -8.16764 | 149.39639 | 38846 ft | 473 kts | 62° |
| 2026-05-08 09:11 | -8.13758 | 149.45552 | 38840 ft | 474 kts | 62° |
| 2026-05-08 09:12 | -8.10738 | 149.51494 | 38842 ft | 475 kts | 62° |
| 2026-05-08 09:12 | -8.07744 | 149.57379 | 38849 ft | 475 kts | 62° |
| 2026-05-08 09:13 | -8.04709 | 149.63342 | 38848 ft | 475 kts | 62° |
| 2026-05-08 09:13 | -8.01698 | 149.69260 | 38841 ft | 475 kts | 62° |
| 2026-05-08 09:14 | -7.98696 | 149.75154 | 38832 ft | 474 kts | 62° |
| 2026-05-08 09:14 | -7.95673 | 149.81087 | 38832 ft | 473 kts | 62° |
| 2026-05-08 09:15 | -7.92682 | 149.86955 | 38844 ft | 472 kts | 62° |
| 2026-05-08 09:15 | -7.89680 | 149.92841 | 38850 ft | 472 kts | 62° |
| 2026-05-08 09:16 | -7.86692 | 149.98698 | 38844 ft | 472 kts | 62° |
| 2026-05-08 09:16 | -7.83670 | 150.04620 | 38837 ft | 473 kts | 62° |
| 2026-05-08 09:17 | -7.80663 | 150.10512 | 38831 ft | 475 kts | 62° |
| 2026-05-08 09:17 | -7.77640 | 150.16428 | 38842 ft | 475 kts | 62° |
| 2026-05-08 09:18 | -7.74615 | 150.22347 | 38850 ft | 475 kts | 62° |
| 2026-05-08 09:18 | -7.71584 | 150.28275 | 38846 ft | 475 kts | 62° |
| 2026-05-08 09:19 | -7.68551 | 150.34207 | 38843 ft | 474 kts | 62° |
| 2026-05-08 09:19 | -7.65543 | 150.40086 | 38835 ft | 475 kts | 62° |
| 2026-05-08 09:20 | -7.62513 | 150.46007 | 38833 ft | 476 kts | 62° |
| 2026-05-08 09:20 | -7.59458 | 150.51975 | 38849 ft | 477 kts | 62° |
| 2026-05-08 09:21 | -7.56435 | 150.57875 | 38852 ft | 477 kts | 62° |
| 2026-05-08 09:23 | -7.45800 | 150.78615 | 38846 ft | 476 kts | 62° |
| 2026-05-08 09:23 | -7.42751 | 150.84558 | 38838 ft | 477 kts | 62° |
| 2026-05-08 09:24 | -7.39705 | 150.90491 | 38834 ft | 478 kts | 62° |
| 2026-05-08 09:24 | -7.36664 | 150.96413 | 38839 ft | 478 kts | 62° |
| 2026-05-08 09:25 | -7.33613 | 151.02350 | 38845 ft | 478 kts | 62° |
| 2026-05-08 09:25 | -7.30558 | 151.08295 | 38856 ft | 478 kts | 62° |
| 2026-05-08 09:26 | -7.27503 | 151.14235 | 38849 ft | 478 kts | 62° |
| 2026-05-08 09:26 | -7.24462 | 151.20148 | 38844 ft | 478 kts | 62° |
| 2026-05-08 09:27 | -7.21395 | 151.26106 | 38827 ft | 479 kts | 62° |
| 2026-05-08 09:27 | -7.18329 | 151.32062 | 38831 ft | 479 kts | 62° |
| 2026-05-08 09:28 | -7.15274 | 151.37994 | 38852 ft | 478 kts | 62° |
| 2026-05-08 09:28 | -7.12221 | 151.43921 | 38852 ft | 478 kts | 62° |
| 2026-05-08 09:29 | -7.09146 | 151.49887 | 38832 ft | 479 kts | 62° |
| 2026-05-08 09:29 | -7.06099 | 151.55795 | 38823 ft | 478 kts | 62° |
| 2026-05-08 09:30 | -7.03047 | 151.61714 | 38835 ft | 478 kts | 62° |
| 2026-05-08 09:30 | -6.99983 | 151.67653 | 38848 ft | 478 kts | 62° |
| 2026-05-08 09:31 | -6.96919 | 151.73590 | 38849 ft | 478 kts | 62° |
| 2026-05-08 09:31 | -6.93837 | 151.79556 | 38841 ft | 479 kts | 62° |
| 2026-05-08 09:32 | -6.90769 | 151.85496 | 38832 ft | 479 kts | 62° |
| 2026-05-08 09:32 | -6.87714 | 151.91409 | 38837 ft | 478 kts | 62° |
| 2026-05-08 09:33 | -6.84650 | 151.97337 | 38849 ft | 478 kts | 62° |
| 2026-05-08 09:33 | -6.81588 | 152.03258 | 38851 ft | 477 kts | 62° |
| 2026-05-08 09:34 | -6.78531 | 152.09166 | 38843 ft | 478 kts | 62° |
| 2026-05-08 09:34 | -6.75453 | 152.15114 | 38834 ft | 479 kts | 62° |
| 2026-05-08 09:35 | -6.72389 | 152.21034 | 38835 ft | 479 kts | 62° |
| 2026-05-08 09:35 | -6.69318 | 152.26965 | 38844 ft | 479 kts | 62° |
| 2026-05-08 09:36 | -6.66240 | 152.32906 | 38851 ft | 479 kts | 62° |
| 2026-05-08 09:36 | -6.63160 | 152.38847 | 38847 ft | 478 kts | 62° |
| 2026-05-08 09:37 | -6.60082 | 152.44785 | 38837 ft | 478 kts | 62° |
| 2026-05-08 09:37 | -6.57000 | 152.50728 | 38832 ft | 479 kts | 62° |
| 2026-05-08 09:38 | -6.53925 | 152.56657 | 38838 ft | 479 kts | 62° |
| 2026-05-08 09:38 | -6.50846 | 152.62592 | 38849 ft | 480 kts | 62° |
| 2026-05-08 09:39 | -6.47764 | 152.68526 | 38850 ft | 480 kts | 62° |
| 2026-05-08 09:39 | -6.44674 | 152.74475 | 38842 ft | 480 kts | 62° |
| 2026-05-08 09:40 | -6.41592 | 152.80409 | 38837 ft | 479 kts | 62° |
| 2026-05-08 09:40 | -6.38532 | 152.86296 | 38844 ft | 478 kts | 62° |
| 2026-05-08 09:41 | -6.35449 | 152.92227 | 38849 ft | 479 kts | 62° |
| 2026-05-08 09:41 | -6.32366 | 152.98155 | 38856 ft | 479 kts | 62° |
| 2026-05-08 09:42 | -6.29264 | 153.04118 | 38855 ft | 480 kts | 62° |
| 2026-05-08 09:42 | -6.26170 | 153.10065 | 38850 ft | 481 kts | 62° |
| 2026-05-08 09:43 | -6.23086 | 153.15988 | 38849 ft | 481 kts | 62° |
| 2026-05-08 09:43 | -6.19995 | 153.21927 | 38852 ft | 479 kts | 62° |
| 2026-05-08 09:44 | -6.16899 | 153.27870 | 38856 ft | 478 kts | 62° |
| 2026-05-08 09:44 | -6.13822 | 153.33775 | 38861 ft | 477 kts | 62° |
| 2026-05-08 09:45 | -6.10751 | 153.39667 | 38853 ft | 477 kts | 62° |
| 2026-05-08 09:45 | -6.07672 | 153.45570 | 38843 ft | 478 kts | 62° |
| 2026-05-08 09:46 | -6.04585 | 153.51489 | 38836 ft | 479 kts | 62° |
| 2026-05-08 09:46 | -6.01501 | 153.57400 | 38832 ft | 478 kts | 62° |
| 2026-05-08 09:47 | -5.98418 | 153.63312 | 38835 ft | 476 kts | 61° |
| 2026-05-08 09:47 | -5.95345 | 153.69197 | 38846 ft | 474 kts | 61° |
| 2026-05-08 09:48 | -5.92299 | 153.75027 | 38848 ft | 474 kts | 61° |
| 2026-05-08 09:48 | -5.89225 | 153.80913 | 38841 ft | 474 kts | 61° |
| 2026-05-08 09:49 | -5.86153 | 153.86792 | 38832 ft | 475 kts | 61° |
| 2026-05-08 09:49 | -5.83102 | 153.92630 | 38831 ft | 475 kts | 61° |
| 2026-05-08 09:50 | -5.80046 | 153.98474 | 38839 ft | 474 kts | 61° |
| 2026-05-08 09:50 | -5.76976 | 154.04346 | 38851 ft | 474 kts | 61° |
| 2026-05-08 09:51 | -5.73912 | 154.10200 | 38849 ft | 473 kts | 61° |
| 2026-05-08 09:51 | -5.70867 | 154.16019 | 38860 ft | 472 kts | 61° |
| 2026-05-08 09:52 | -5.67808 | 154.21863 | 38857 ft | 472 kts | 61° |
| 2026-05-08 09:52 | -5.64765 | 154.27675 | 38854 ft | 472 kts | 61° |
| 2026-05-08 09:53 | -5.61717 | 154.33493 | 38841 ft | 473 kts | 61° |
| 2026-05-08 09:53 | -5.58658 | 154.39331 | 38848 ft | 472 kts | 62° |
| 2026-05-08 09:54 | -5.55585 | 154.45197 | 38866 ft | 472 kts | 61° |
| 2026-05-08 09:54 | -5.52534 | 154.51015 | 38869 ft | 472 kts | 61° |
| 2026-05-08 09:55 | -5.49475 | 154.56847 | 38874 ft | 472 kts | 61° |
| 2026-05-08 09:55 | -5.46403 | 154.62703 | 38863 ft | 472 kts | 62° |
| 2026-05-08 09:56 | -5.43089 | 154.68333 | 38866 ft | 470 kts | 52° |
| 2026-05-08 09:56 | -5.39152 | 154.73621 | 38853 ft | 471 kts | 53° |
| 2026-05-08 09:57 | -5.33293 | 154.81502 | 38882 ft | 470 kts | 53° |
| 2026-05-08 09:57 | -5.29380 | 154.86758 | 38861 ft | 471 kts | 53° |
| 2026-05-08 09:58 | -5.25478 | 154.92004 | 38860 ft | 470 kts | 53° |
| 2026-05-08 09:58 | -5.21570 | 154.97255 | 38835 ft | 469 kts | 53° |
| 2026-05-08 09:59 | -5.17675 | 155.02489 | 38847 ft | 468 kts | 53° |
| 2026-05-08 09:59 | -5.13783 | 155.07716 | 38844 ft | 467 kts | 53° |
| 2026-05-08 10:00 | -5.09897 | 155.12933 | 38822 ft | 468 kts | 53° |
| 2026-05-08 10:00 | -5.06015 | 155.18144 | 38843 ft | 469 kts | 53° |
| 2026-05-08 10:01 | -5.02097 | 155.23404 | 38852 ft | 470 kts | 53° |
| 2026-05-08 10:01 | -4.98184 | 155.28654 | 38848 ft | 470 kts | 53° |
| 2026-05-08 10:02 | -4.94265 | 155.33911 | 38841 ft | 470 kts | 53° |
| 2026-05-08 10:02 | -4.90357 | 155.39154 | 38831 ft | 469 kts | 53° |
| 2026-05-08 10:03 | -4.86468 | 155.44369 | 38832 ft | 470 kts | 53° |
| 2026-05-08 10:03 | -4.82546 | 155.49628 | 38841 ft | 470 kts | 53° |
| 2026-05-08 10:04 | -4.78641 | 155.54863 | 38848 ft | 469 kts | 53° |
| 2026-05-08 10:04 | -4.74731 | 155.60101 | 38848 ft | 469 kts | 53° |
| 2026-05-08 10:05 | -4.70828 | 155.65332 | 38840 ft | 469 kts | 53° |
| 2026-05-08 10:05 | -4.66925 | 155.70558 | 38834 ft | 470 kts | 53° |
| 2026-05-08 10:06 | -4.62990 | 155.75827 | 38837 ft | 470 kts | 53° |
| 2026-05-08 10:06 | -4.59081 | 155.81062 | 38846 ft | 469 kts | 53° |
| 2026-05-08 10:07 | -4.55157 | 155.86316 | 38852 ft | 468 kts | 53° |
| 2026-05-08 10:07 | -4.51254 | 155.91539 | 38851 ft | 468 kts | 53° |
| 2026-05-08 10:08 | -4.47336 | 155.96782 | 38839 ft | 469 kts | 53° |
| 2026-05-08 10:08 | -4.43428 | 156.02010 | 38834 ft | 469 kts | 53° |
| 2026-05-08 10:09 | -4.39530 | 156.07224 | 38837 ft | 468 kts | 53° |
| 2026-05-08 10:09 | -4.35619 | 156.12454 | 38847 ft | 468 kts | 53° |
| 2026-05-08 10:10 | -4.31742 | 156.17639 | 38850 ft | 467 kts | 53° |
| 2026-05-08 10:10 | -4.27831 | 156.22867 | 38844 ft | 467 kts | 53° |
| 2026-05-08 10:11 | -4.23954 | 156.28049 | 38835 ft | 468 kts | 54° |
| 2026-05-08 10:11 | -4.20035 | 156.33285 | 38830 ft | 468 kts | 54° |
| 2026-05-08 10:12 | -4.16154 | 156.38470 | 38835 ft | 468 kts | 54° |
| 2026-05-08 10:12 | -4.12241 | 156.43698 | 38841 ft | 467 kts | 54° |
| 2026-05-08 10:13 | -4.08352 | 156.48892 | 38843 ft | 467 kts | 54° |
| 2026-05-08 10:13 | -4.04437 | 156.54120 | 38833 ft | 466 kts | 54° |
| 2026-05-08 10:14 | -4.00552 | 156.59306 | 38823 ft | 466 kts | 54° |
| 2026-05-08 10:14 | -3.96653 | 156.64511 | 38816 ft | 467 kts | 54° |
| 2026-05-08 10:15 | -3.92769 | 156.69694 | 38824 ft | 467 kts | 53° |
| 2026-05-08 10:15 | -3.88867 | 156.74901 | 38828 ft | 467 kts | 53° |
| 2026-05-08 10:16 | -3.84983 | 156.80083 | 38843 ft | 467 kts | 53° |
| 2026-05-08 10:16 | -3.81074 | 156.85297 | 38849 ft | 468 kts | 53° |
| 2026-05-08 10:17 | -3.77151 | 156.90530 | 38842 ft | 468 kts | 53° |
| 2026-05-08 10:17 | -3.73225 | 156.95764 | 38837 ft | 469 kts | 53° |
| 2026-05-08 10:18 | -3.69335 | 157.00949 | 38836 ft | 469 kts | 53° |
| 2026-05-08 10:18 | -3.65406 | 157.06187 | 38841 ft | 468 kts | 53° |
| 2026-05-08 10:19 | -3.61510 | 157.11380 | 38846 ft | 468 kts | 53° |
| 2026-05-08 10:20 | -3.55649 | 157.19189 | 38833 ft | 468 kts | 53° |
| 2026-05-08 10:20 | -3.51722 | 157.24422 | 38840 ft | 468 kts | 53° |
| 2026-05-08 10:21 | -3.47842 | 157.29590 | 38851 ft | 467 kts | 53° |
| 2026-05-08 10:21 | -3.43925 | 157.34805 | 38848 ft | 465 kts | 53° |
| 2026-05-08 10:22 | -3.40050 | 157.39967 | 38841 ft | 465 kts | 53° |
| 2026-05-08 10:22 | -3.36174 | 157.45128 | 38832 ft | 465 kts | 53° |
| 2026-05-08 10:23 | -3.32284 | 157.50304 | 38833 ft | 466 kts | 53° |
| 2026-05-08 10:23 | -3.28369 | 157.55516 | 38838 ft | 466 kts | 53° |
| 2026-05-08 10:24 | -3.24476 | 157.60696 | 38849 ft | 467 kts | 53° |
| 2026-05-08 10:24 | -3.20576 | 157.65886 | 38848 ft | 468 kts | 53° |
| 2026-05-08 10:25 | -3.16672 | 157.71080 | 38837 ft | 468 kts | 53° |
| 2026-05-08 10:25 | -3.12754 | 157.76292 | 38833 ft | 468 kts | 53° |
| 2026-05-08 10:26 | -3.08847 | 157.81488 | 38839 ft | 468 kts | 53° |
| 2026-05-08 10:26 | -3.04942 | 157.86682 | 38848 ft | 468 kts | 53° |
| 2026-05-08 10:27 | -3.01023 | 157.91893 | 38850 ft | 468 kts | 53° |
| 2026-05-08 10:27 | -2.97092 | 157.97118 | 38841 ft | 469 kts | 53° |
| 2026-05-08 10:28 | -2.93168 | 158.02336 | 38832 ft | 470 kts | 53° |
| 2026-05-08 10:28 | -2.89247 | 158.07547 | 38833 ft | 470 kts | 53° |
| 2026-05-08 10:29 | -2.85323 | 158.12762 | 38843 ft | 469 kts | 53° |
| 2026-05-08 10:29 | -2.81417 | 158.17952 | 38850 ft | 469 kts | 53° |
| 2026-05-08 10:30 | -2.77479 | 158.23184 | 38849 ft | 470 kts | 53° |
| 2026-05-08 10:30 | -2.73549 | 158.28406 | 38840 ft | 471 kts | 53° |
| 2026-05-08 10:31 | -2.69602 | 158.33649 | 38834 ft | 471 kts | 53° |
| 2026-05-08 10:31 | -2.65645 | 158.38904 | 38834 ft | 472 kts | 53° |
| 2026-05-08 10:32 | -2.61719 | 158.44118 | 38845 ft | 472 kts | 53° |
| 2026-05-08 10:32 | -2.57775 | 158.49355 | 38850 ft | 472 kts | 53° |
| 2026-05-08 10:33 | -2.53809 | 158.54620 | 38844 ft | 472 kts | 53° |
| 2026-05-08 10:33 | -2.49851 | 158.59874 | 38835 ft | 472 kts | 53° |
| 2026-05-08 10:34 | -2.45904 | 158.65114 | 38831 ft | 472 kts | 53° |
| 2026-05-08 10:34 | -2.41958 | 158.70351 | 38838 ft | 472 kts | 53° |
| 2026-05-08 10:35 | -2.38009 | 158.75592 | 38849 ft | 472 kts | 53° |
| 2026-05-08 10:35 | -2.34045 | 158.80852 | 38851 ft | 473 kts | 53° |
| 2026-05-08 10:36 | -2.30090 | 158.86099 | 38843 ft | 473 kts | 53° |
| 2026-05-08 10:36 | -2.26148 | 158.91328 | 38835 ft | 473 kts | 53° |
| 2026-05-08 10:37 | -2.22177 | 158.96597 | 38834 ft | 474 kts | 53° |
| 2026-05-08 10:37 | -2.18198 | 159.01874 | 38842 ft | 474 kts | 53° |
| 2026-05-08 10:38 | -2.14245 | 159.07117 | 38850 ft | 473 kts | 53° |
| 2026-05-08 10:38 | -2.10296 | 159.12354 | 38847 ft | 472 kts | 53° |
| 2026-05-08 10:39 | -2.06351 | 159.17584 | 38838 ft | 473 kts | 53° |
| 2026-05-08 10:39 | -2.02395 | 159.22830 | 38832 ft | 474 kts | 53° |
| 2026-05-08 10:40 | -1.98424 | 159.28096 | 38834 ft | 474 kts | 53° |
| 2026-05-08 10:40 | -1.94462 | 159.33347 | 38844 ft | 473 kts | 53° |
| 2026-05-08 10:41 | -1.90512 | 159.38583 | 38854 ft | 472 kts | 53° |
| 2026-05-08 10:41 | -1.86550 | 159.43832 | 38861 ft | 472 kts | 53° |
| 2026-05-08 10:42 | -1.82605 | 159.49062 | 38854 ft | 472 kts | 53° |
| 2026-05-08 10:42 | -1.78637 | 159.54320 | 38853 ft | 473 kts | 53° |
| 2026-05-08 10:43 | -1.74681 | 159.59563 | 38856 ft | 473 kts | 53° |
| 2026-05-08 10:43 | -1.70723 | 159.64807 | 38866 ft | 472 kts | 53° |
| 2026-05-08 10:44 | -1.66782 | 159.70027 | 38873 ft | 471 kts | 53° |
| 2026-05-08 10:44 | -1.62827 | 159.75267 | 38868 ft | 471 kts | 53° |
| 2026-05-08 10:45 | -1.58883 | 159.80492 | 38857 ft | 472 kts | 53° |
| 2026-05-08 10:45 | -1.54943 | 159.85712 | 38852 ft | 472 kts | 53° |
| 2026-05-08 10:46 | -1.50988 | 159.90948 | 38857 ft | 472 kts | 53° |
| 2026-05-08 10:46 | -1.47033 | 159.96187 | 38867 ft | 471 kts | 53° |
| 2026-05-08 10:47 | -1.43086 | 160.01413 | 38871 ft | 471 kts | 53° |
| 2026-05-08 10:47 | -1.39139 | 160.06639 | 38866 ft | 471 kts | 53° |
| 2026-05-08 10:48 | -1.35177 | 160.11883 | 38854 ft | 472 kts | 53° |
| 2026-05-08 10:48 | -1.31228 | 160.17111 | 38845 ft | 472 kts | 53° |
| 2026-05-08 10:49 | -1.27272 | 160.22347 | 38848 ft | 472 kts | 53° |
| 2026-05-08 10:49 | -1.23320 | 160.27577 | 38855 ft | 471 kts | 53° |
| 2026-05-08 10:50 | -1.19376 | 160.32796 | 38850 ft | 470 kts | 53° |
| 2026-05-08 10:50 | -1.15438 | 160.38007 | 38837 ft | 471 kts | 53° |
| 2026-05-08 10:51 | -1.11484 | 160.43240 | 38831 ft | 471 kts | 53° |
| 2026-05-08 10:51 | -1.07533 | 160.48468 | 38835 ft | 472 kts | 53° |
| 2026-05-08 10:52 | -1.03568 | 160.53716 | 38844 ft | 471 kts | 53° |
| 2026-05-08 10:52 | -0.99628 | 160.58926 | 38849 ft | 470 kts | 53° |
| 2026-05-08 10:53 | -0.95674 | 160.64159 | 38849 ft | 470 kts | 53° |
| 2026-05-08 10:53 | -0.91755 | 160.69344 | 38853 ft | 470 kts | 53° |
| 2026-05-08 10:54 | -0.87822 | 160.74545 | 38854 ft | 470 kts | 53° |
| 2026-05-08 10:54 | -0.83875 | 160.79767 | 38858 ft | 470 kts | 53° |
| 2026-05-08 10:55 | -0.79949 | 160.84961 | 38858 ft | 470 kts | 53° |
| 2026-05-08 10:55 | -0.75989 | 160.90198 | 38863 ft | 470 kts | 53° |
| 2026-05-08 10:56 | -0.72032 | 160.95432 | 38871 ft | 470 kts | 53° |
| 2026-05-08 10:56 | -0.68096 | 161.00639 | 38871 ft | 469 kts | 53° |
| 2026-05-08 10:57 | -0.64174 | 161.05826 | 38862 ft | 469 kts | 53° |
| 2026-05-08 10:57 | -0.58290 | 161.13608 | 38871 ft | 470 kts | 53° |
| 2026-05-08 10:58 | -0.54324 | 161.18852 | 38865 ft | 470 kts | 52° |
| 2026-05-08 10:58 | -0.50392 | 161.24052 | 38856 ft | 471 kts | 52° |
| 2026-05-08 10:59 | -0.46451 | 161.29265 | 38853 ft | 470 kts | 52° |
| 2026-05-08 10:59 | -0.42497 | 161.34492 | 38859 ft | 470 kts | 52° |
| 2026-05-08 11:00 | -0.38569 | 161.39688 | 38869 ft | 470 kts | 53° |
| 2026-05-08 11:00 | -0.34591 | 161.44949 | 38870 ft | 471 kts | 52° |
| 2026-05-08 11:01 | -0.30647 | 161.50163 | 38860 ft | 471 kts | 52° |
| 2026-05-08 11:01 | -0.26686 | 161.55402 | 38852 ft | 471 kts | 52° |
| 2026-05-08 11:02 | -0.20762 | 161.63235 | 38864 ft | 471 kts | 52° |
| 2026-05-08 11:03 | -0.16832 | 161.68431 | 38857 ft | 471 kts | 52° |
| 2026-05-08 11:03 | -0.12859 | 161.73685 | 38854 ft | 472 kts | 52° |
| 2026-05-08 11:04 | -0.08914 | 161.78902 | 38860 ft | 472 kts | 52° |
| 2026-05-08 11:04 | -0.04955 | 161.84139 | 38869 ft | 473 kts | 52° |
| 2026-05-08 11:05 | -0.00983 | 161.89389 | 38869 ft | 473 kts | 52° |
| 2026-05-08 11:05 | 0.02993 | 161.94647 | 38861 ft | 473 kts | 52° |
| 2026-05-08 11:06 | 0.06965 | 161.99898 | 38861 ft | 473 kts | 52° |
| 2026-05-08 11:06 | 0.10943 | 162.05159 | 38873 ft | 474 kts | 52° |
| 2026-05-08 11:07 | 0.14916 | 162.10413 | 38879 ft | 474 kts | 52° |
| 2026-05-08 11:07 | 0.18888 | 162.15665 | 38873 ft | 473 kts | 52° |
| 2026-05-08 11:08 | 0.22842 | 162.20892 | 38863 ft | 473 kts | 52° |
| 2026-05-08 11:08 | 0.26806 | 162.26135 | 38855 ft | 473 kts | 52° |
| 2026-05-08 11:09 | 0.30782 | 162.31392 | 38851 ft | 473 kts | 52° |
| 2026-05-08 11:09 | 0.34747 | 162.36636 | 38859 ft | 473 kts | 52° |
| 2026-05-08 11:10 | 0.38700 | 162.41862 | 38867 ft | 473 kts | 52° |
| 2026-05-08 11:10 | 0.42662 | 162.47102 | 38869 ft | 472 kts | 52° |
| 2026-05-08 11:11 | 0.46636 | 162.52356 | 38860 ft | 473 kts | 52° |
| 2026-05-08 11:11 | 0.50598 | 162.57597 | 38855 ft | 473 kts | 52° |
| 2026-05-08 11:12 | 0.54560 | 162.62837 | 38849 ft | 474 kts | 52° |
| 2026-05-08 11:12 | 0.58548 | 162.68111 | 38861 ft | 474 kts | 52° |
| 2026-05-08 11:13 | 0.62499 | 162.73337 | 38867 ft | 473 kts | 52° |
| 2026-05-08 11:13 | 0.66485 | 162.78609 | 38868 ft | 473 kts | 52° |
| 2026-05-08 11:14 | 0.70431 | 162.83827 | 38862 ft | 473 kts | 52° |
| 2026-05-08 11:14 | 0.74389 | 162.89064 | 38857 ft | 473 kts | 52° |
| 2026-05-08 11:15 | 0.78351 | 162.94304 | 38854 ft | 473 kts | 52° |
| 2026-05-08 11:15 | 0.82335 | 162.99573 | 38860 ft | 473 kts | 52° |
| 2026-05-08 11:16 | 0.86291 | 163.04807 | 38862 ft | 473 kts | 52° |
| 2026-05-08 11:16 | 0.90243 | 163.10034 | 38864 ft | 473 kts | 52° |
| 2026-05-08 11:17 | 0.94227 | 163.15306 | 38864 ft | 473 kts | 52° |
| 2026-05-08 11:17 | 0.98187 | 163.20544 | 38864 ft | 473 kts | 52° |
| 2026-05-08 11:18 | 1.02146 | 163.25783 | 38864 ft | 473 kts | 52° |
| 2026-05-08 11:18 | 1.06112 | 163.31029 | 38861 ft | 473 kts | 52° |
| 2026-05-08 11:19 | 1.10065 | 163.36259 | 38860 ft | 473 kts | 52° |
| 2026-05-08 11:19 | 1.14039 | 163.41519 | 38860 ft | 472 kts | 52° |
| 2026-05-08 11:20 | 1.17982 | 163.46736 | 38860 ft | 472 kts | 52° |
| 2026-05-08 11:20 | 1.21922 | 163.51952 | 38859 ft | 472 kts | 53° |
| 2026-05-08 11:21 | 1.25872 | 163.57179 | 38860 ft | 472 kts | 53° |
| 2026-05-08 11:21 | 1.29832 | 163.62421 | 38863 ft | 473 kts | 52° |
| 2026-05-08 11:22 | 1.33800 | 163.67673 | 38869 ft | 472 kts | 52° |
| 2026-05-08 11:22 | 1.37745 | 163.72893 | 38871 ft | 472 kts | 52° |
| 2026-05-08 11:23 | 1.41692 | 163.78117 | 38874 ft | 471 kts | 53° |
| 2026-05-08 11:23 | 1.45666 | 163.83379 | 38877 ft | 471 kts | 53° |
| 2026-05-08 11:24 | 1.49607 | 163.88597 | 38871 ft | 472 kts | 53° |
| 2026-05-08 11:24 | 1.53568 | 163.93843 | 38866 ft | 472 kts | 53° |
| 2026-05-08 11:25 | 1.57520 | 163.99074 | 38863 ft | 472 kts | 52° |
| 2026-05-08 11:25 | 1.61467 | 164.04300 | 38860 ft | 471 kts | 52° |
| 2026-05-08 11:26 | 1.65397 | 164.09506 | 38860 ft | 471 kts | 53° |
| 2026-05-08 11:26 | 1.69358 | 164.14751 | 38860 ft | 471 kts | 53° |
| 2026-05-08 11:27 | 1.73297 | 164.19969 | 38860 ft | 471 kts | 53° |
| 2026-05-08 11:27 | 1.77220 | 164.25165 | 38859 ft | 470 kts | 53° |
| 2026-05-08 11:28 | 1.81205 | 164.30360 | 38860 ft | 470 kts | 52° |
| 2026-05-08 11:28 | 1.85191 | 164.35555 | 38861 ft | 470 kts | 52° |
| 2026-05-08 11:29 | 1.89168 | 164.40738 | 38862 ft | 469 kts | 52° |
| 2026-05-08 11:29 | 1.93153 | 164.45932 | 38862 ft | 469 kts | 52° |
| 2026-05-08 11:30 | 1.97127 | 164.51112 | 38862 ft | 469 kts | 52° |
| 2026-05-08 11:30 | 2.01100 | 164.56291 | 38860 ft | 469 kts | 53° |
| 2026-05-08 11:31 | 2.05060 | 164.61455 | 38858 ft | 469 kts | 53° |
| 2026-05-08 11:31 | 2.09043 | 164.66649 | 38860 ft | 469 kts | 53° |
| 2026-05-08 11:32 | 2.13016 | 164.71828 | 38862 ft | 470 kts | 53° |
| 2026-05-08 11:32 | 2.16990 | 164.77010 | 38861 ft | 469 kts | 53° |
| 2026-05-08 11:33 | 2.20953 | 164.82178 | 38862 ft | 469 kts | 53° |
| 2026-05-08 11:33 | 2.24938 | 164.87376 | 38862 ft | 469 kts | 53° |
| 2026-05-08 11:34 | 2.28890 | 164.92532 | 38863 ft | 470 kts | 53° |
| 2026-05-08 11:34 | 2.32865 | 164.97719 | 38865 ft | 470 kts | 53° |
| 2026-05-08 11:35 | 2.36843 | 165.02908 | 38866 ft | 469 kts | 53° |
| 2026-05-08 11:35 | 2.40813 | 165.08089 | 38867 ft | 468 kts | 53° |
| 2026-05-08 11:36 | 2.44763 | 165.13243 | 38860 ft | 468 kts | 53° |
| 2026-05-08 11:36 | 2.48715 | 165.18402 | 38855 ft | 469 kts | 53° |
| 2026-05-08 11:37 | 2.52685 | 165.23584 | 38861 ft | 470 kts | 53° |
| 2026-05-08 11:37 | 2.56659 | 165.28772 | 38867 ft | 471 kts | 53° |
| 2026-05-08 11:38 | 2.60632 | 165.33960 | 38869 ft | 470 kts | 53° |
| 2026-05-08 11:38 | 2.64626 | 165.39172 | 38868 ft | 469 kts | 53° |
| 2026-05-08 11:39 | 2.68586 | 165.44345 | 38871 ft | 470 kts | 53° |
| 2026-05-08 11:39 | 2.72576 | 165.49556 | 38871 ft | 471 kts | 53° |
| 2026-05-08 11:40 | 2.76560 | 165.54761 | 38867 ft | 472 kts | 53° |
| 2026-05-08 11:40 | 2.80559 | 165.59985 | 38862 ft | 472 kts | 53° |
| 2026-05-08 11:41 | 2.84539 | 165.65186 | 38858 ft | 472 kts | 53° |
| 2026-05-08 11:41 | 2.88547 | 165.70422 | 38860 ft | 472 kts | 53° |
| 2026-05-08 11:42 | 2.92537 | 165.75636 | 38861 ft | 473 kts | 53° |
| 2026-05-08 11:42 | 2.96547 | 165.80878 | 38862 ft | 474 kts | 53° |
| 2026-05-08 11:43 | 3.00563 | 165.86128 | 38864 ft | 474 kts | 53° |
| 2026-05-08 11:43 | 3.04552 | 165.91344 | 38869 ft | 474 kts | 53° |
| 2026-05-08 11:44 | 3.08573 | 165.96600 | 38872 ft | 475 kts | 53° |
| 2026-05-08 11:44 | 3.12589 | 166.01854 | 38864 ft | 474 kts | 53° |
| 2026-05-08 11:45 | 3.16602 | 166.07103 | 38855 ft | 474 kts | 53° |
| 2026-05-08 11:45 | 3.20607 | 166.12341 | 38857 ft | 475 kts | 53° |
| 2026-05-08 11:46 | 3.24606 | 166.17575 | 38864 ft | 474 kts | 53° |
| 2026-05-08 11:46 | 3.28606 | 166.22807 | 38871 ft | 474 kts | 53° |
| 2026-05-08 11:47 | 3.32605 | 166.28043 | 38866 ft | 474 kts | 53° |
| 2026-05-08 11:47 | 3.36620 | 166.33296 | 38856 ft | 473 kts | 53° |
| 2026-05-08 11:48 | 3.40617 | 166.38528 | 38853 ft | 475 kts | 53° |
| 2026-05-08 11:48 | 3.44621 | 166.43771 | 38859 ft | 475 kts | 53° |
| 2026-05-08 11:49 | 3.48640 | 166.49036 | 38868 ft | 474 kts | 53° |
| 2026-05-08 11:49 | 3.52618 | 166.54279 | 38869 ft | 473 kts | 53° |
| 2026-05-08 11:50 | 3.56608 | 166.59555 | 38861 ft | 473 kts | 53° |
| 2026-05-08 11:50 | 3.60574 | 166.64803 | 38852 ft | 473 kts | 53° |
| 2026-05-08 11:51 | 3.64544 | 166.70053 | 38856 ft | 474 kts | 53° |
| 2026-05-08 11:51 | 3.68515 | 166.75308 | 38869 ft | 474 kts | 54° |
| 2026-05-08 11:52 | 3.72499 | 166.80583 | 38884 ft | 474 kts | 54° |
| 2026-05-08 11:52 | 3.76483 | 166.85857 | 38888 ft | 473 kts | 54° |
| 2026-05-08 11:53 | 3.80449 | 166.91106 | 38882 ft | 473 kts | 54° |
| 2026-05-08 11:53 | 3.84405 | 166.96344 | 38877 ft | 473 kts | 54° |
| 2026-05-08 11:54 | 3.88390 | 167.01622 | 38877 ft | 473 kts | 54° |
| 2026-05-08 11:54 | 3.92335 | 167.06848 | 38878 ft | 472 kts | 54° |
| 2026-05-08 11:55 | 3.96297 | 167.12100 | 38890 ft | 472 kts | 54° |
| 2026-05-08 11:55 | 4.00248 | 167.17334 | 38894 ft | 472 kts | 54° |
| 2026-05-08 11:56 | 4.04207 | 167.22582 | 38888 ft | 472 kts | 54° |
| 2026-05-08 11:56 | 4.08171 | 167.27837 | 38884 ft | 472 kts | 54° |
| 2026-05-08 11:57 | 4.12130 | 167.33086 | 38877 ft | 471 kts | 54° |
| 2026-05-08 11:57 | 4.16068 | 167.38307 | 38871 ft | 470 kts | 54° |
| 2026-05-08 11:58 | 4.20003 | 167.43526 | 38868 ft | 471 kts | 54° |
| 2026-05-08 11:58 | 4.23960 | 167.48776 | 38869 ft | 472 kts | 53° |
| 2026-05-08 11:59 | 4.29882 | 167.56633 | 38857 ft | 471 kts | 53° |
| 2026-05-08 11:59 | 4.33827 | 167.61871 | 38863 ft | 470 kts | 53° |
| 2026-05-08 12:00 | 4.37756 | 167.67087 | 38875 ft | 468 kts | 53° |
| 2026-05-08 12:00 | 4.41676 | 167.72290 | 38879 ft | 469 kts | 53° |
| 2026-05-08 12:01 | 4.45594 | 167.77495 | 38880 ft | 471 kts | 53° |
| 2026-05-08 12:01 | 4.49557 | 167.82759 | 38872 ft | 472 kts | 52° |
| 2026-05-08 12:02 | 4.53515 | 167.88017 | 38862 ft | 472 kts | 52° |
| 2026-05-08 12:02 | 4.57465 | 167.93265 | 38870 ft | 473 kts | 52° |
| 2026-05-08 12:03 | 4.61423 | 167.98526 | 38885 ft | 473 kts | 52° |
| 2026-05-08 12:03 | 4.65373 | 168.03775 | 38892 ft | 474 kts | 52° |
| 2026-05-08 12:04 | 4.69342 | 168.09055 | 38888 ft | 475 kts | 52° |
| 2026-05-08 12:04 | 4.73331 | 168.14359 | 38873 ft | 475 kts | 52° |
| 2026-05-08 12:05 | 4.77313 | 168.19652 | 38872 ft | 476 kts | 52° |
| 2026-05-08 12:05 | 4.81298 | 168.24957 | 38886 ft | 476 kts | 52° |
| 2026-05-08 12:06 | 4.85262 | 168.30232 | 38889 ft | 475 kts | 52° |
| 2026-05-08 12:06 | 4.89243 | 168.35532 | 38884 ft | 475 kts | 52° |
| 2026-05-08 12:07 | 4.93228 | 168.40837 | 38878 ft | 476 kts | 53° |
| 2026-05-08 12:07 | 4.97220 | 168.46152 | 38863 ft | 476 kts | 53° |
| 2026-05-08 12:08 | 5.01180 | 168.51428 | 38859 ft | 476 kts | 53° |
| 2026-05-08 12:08 | 5.05150 | 168.56718 | 38872 ft | 474 kts | 53° |
| 2026-05-08 12:09 | 5.09104 | 168.61987 | 38870 ft | 474 kts | 53° |
| 2026-05-08 12:09 | 5.13105 | 168.67320 | 38865 ft | 476 kts | 53° |
| 2026-05-08 12:10 | 5.17065 | 168.72600 | 38861 ft | 477 kts | 53° |
| 2026-05-08 12:10 | 5.21071 | 168.77943 | 38870 ft | 477 kts | 53° |
| 2026-05-08 12:11 | 5.25045 | 168.83243 | 38871 ft | 475 kts | 53° |
| 2026-05-08 12:11 | 5.29013 | 168.88538 | 38866 ft | 476 kts | 53° |
| 2026-05-08 12:12 | 5.32986 | 168.93840 | 38873 ft | 475 kts | 53° |
| 2026-05-08 12:12 | 5.36939 | 168.99115 | 38866 ft | 476 kts | 53° |
| 2026-05-08 12:13 | 5.40928 | 169.04442 | 38867 ft | 478 kts | 53° |
| 2026-05-08 12:13 | 5.44934 | 169.09792 | 38873 ft | 478 kts | 53° |
| 2026-05-08 12:14 | 5.48916 | 169.15112 | 38884 ft | 476 kts | 53° |
| 2026-05-08 12:14 | 5.52878 | 169.20407 | 38888 ft | 475 kts | 53° |
| 2026-05-08 12:15 | 5.56858 | 169.25726 | 38887 ft | 474 kts | 53° |
| 2026-05-08 12:15 | 5.60803 | 169.31000 | 38884 ft | 475 kts | 53° |
| 2026-05-08 12:16 | 5.64767 | 169.36299 | 38879 ft | 475 kts | 53° |
| 2026-05-08 12:16 | 5.68733 | 169.41606 | 38875 ft | 475 kts | 52° |
| 2026-05-08 12:17 | 5.72700 | 169.46913 | 38876 ft | 474 kts | 52° |
| 2026-05-08 12:17 | 5.76667 | 169.52222 | 38884 ft | 474 kts | 52° |
| 2026-05-08 12:18 | 5.80629 | 169.57524 | 38890 ft | 474 kts | 52° |
| 2026-05-08 12:18 | 5.84594 | 169.62834 | 38886 ft | 473 kts | 52° |
| 2026-05-08 12:19 | 5.88529 | 169.68105 | 38878 ft | 474 kts | 52° |
| 2026-05-08 12:19 | 5.92481 | 169.73398 | 38874 ft | 474 kts | 52° |
| 2026-05-08 12:20 | 5.96455 | 169.78725 | 38880 ft | 474 kts | 52° |
| 2026-05-08 12:20 | 6.00396 | 169.84004 | 38882 ft | 473 kts | 52° |
| 2026-05-08 12:21 | 6.04340 | 169.89293 | 38886 ft | 474 kts | 52° |
| 2026-05-08 12:21 | 6.08295 | 169.94600 | 38877 ft | 474 kts | 52° |
| 2026-05-08 12:22 | 6.12253 | 169.99908 | 38873 ft | 473 kts | 52° |
| 2026-05-08 12:22 | 6.16183 | 170.05182 | 38871 ft | 473 kts | 52° |
| 2026-05-08 12:23 | 6.20138 | 170.10489 | 38867 ft | 472 kts | 52° |
| 2026-05-08 12:23 | 6.24080 | 170.15781 | 38877 ft | 473 kts | 52° |
| 2026-05-08 12:24 | 6.28006 | 170.21056 | 38883 ft | 473 kts | 52° |
| 2026-05-08 12:24 | 6.31952 | 170.26356 | 38883 ft | 473 kts | 52° |
| 2026-05-08 12:25 | 6.35868 | 170.31619 | 38883 ft | 472 kts | 52° |
| 2026-05-08 12:25 | 6.39801 | 170.36905 | 38884 ft | 473 kts | 52° |
| 2026-05-08 12:26 | 6.43751 | 170.42217 | 38884 ft | 473 kts | 52° |
| 2026-05-08 12:26 | 6.47671 | 170.47488 | 38884 ft | 473 kts | 52° |
| 2026-05-08 12:27 | 6.51601 | 170.52776 | 38884 ft | 473 kts | 52° |
| 2026-05-08 12:27 | 6.55568 | 170.58115 | 38884 ft | 474 kts | 52° |
| 2026-05-08 12:28 | 6.59483 | 170.63384 | 38882 ft | 473 kts | 52° |
| 2026-05-08 12:28 | 6.63421 | 170.68687 | 38882 ft | 473 kts | 52° |
| 2026-05-08 12:29 | 6.67361 | 170.73994 | 38882 ft | 472 kts | 52° |
| 2026-05-08 12:29 | 6.71294 | 170.79294 | 38881 ft | 473 kts | 52° |
| 2026-05-08 12:30 | 6.75231 | 170.84601 | 38880 ft | 474 kts | 52° |
| 2026-05-08 12:30 | 6.79198 | 170.89947 | 38880 ft | 474 kts | 52° |
| 2026-05-08 12:31 | 6.83137 | 170.95261 | 38881 ft | 475 kts | 52° |
| 2026-05-08 12:31 | 6.87093 | 171.00598 | 38881 ft | 473 kts | 52° |
| 2026-05-08 12:32 | 6.91021 | 171.05898 | 38886 ft | 473 kts | 52° |
| 2026-05-08 12:32 | 6.94960 | 171.11217 | 38888 ft | 473 kts | 52° |
| 2026-05-08 12:33 | 6.98903 | 171.16540 | 38895 ft | 475 kts | 52° |
| 2026-05-08 12:33 | 7.02858 | 171.21884 | 38901 ft | 475 kts | 52° |
| 2026-05-08 12:34 | 7.06736 | 171.27232 | 38888 ft | 475 kts | 58° |
| 2026-05-08 12:34 | 7.09956 | 171.33077 | 38885 ft | 477 kts | 60° |
| 2026-05-08 12:35 | 7.13178 | 171.38939 | 38900 ft | 477 kts | 60° |
| 2026-05-08 12:35 | 7.16399 | 171.44803 | 38900 ft | 477 kts | 60° |
| 2026-05-08 12:36 | 7.19611 | 171.50653 | 38902 ft | 477 kts | 60° |
| 2026-05-08 12:36 | 7.22821 | 171.56502 | 38897 ft | 478 kts | 60° |
| 2026-05-08 12:37 | 7.26032 | 171.62354 | 38890 ft | 477 kts | 60° |
| 2026-05-08 12:37 | 7.29214 | 171.68155 | 38891 ft | 477 kts | 60° |
| 2026-05-08 12:38 | 7.32439 | 171.74037 | 38888 ft | 478 kts | 59° |
| 2026-05-08 12:38 | 7.35639 | 171.79875 | 38887 ft | 478 kts | 60° |
| 2026-05-08 12:39 | 7.38851 | 171.85739 | 38885 ft | 478 kts | 60° |
| 2026-05-08 12:39 | 7.42052 | 171.91583 | 38882 ft | 478 kts | 60° |
| 2026-05-08 12:40 | 7.45274 | 171.97469 | 38883 ft | 478 kts | 60° |
| 2026-05-08 12:40 | 7.48463 | 172.03296 | 38883 ft | 477 kts | 60° |
| 2026-05-08 12:41 | 7.51673 | 172.09163 | 38882 ft | 477 kts | 60° |
| 2026-05-08 12:41 | 7.54863 | 172.15001 | 38882 ft | 477 kts | 59° |
| 2026-05-08 12:42 | 7.58061 | 172.20850 | 38885 ft | 478 kts | 60° |
| 2026-05-08 12:42 | 7.61279 | 172.26738 | 38884 ft | 478 kts | 59° |
| 2026-05-08 12:43 | 7.64473 | 172.32587 | 38885 ft | 477 kts | 60° |
| 2026-05-08 12:43 | 7.67661 | 172.38425 | 38886 ft | 477 kts | 60° |
| 2026-05-08 12:44 | 7.70870 | 172.44305 | 38886 ft | 478 kts | 60° |
| 2026-05-08 12:44 | 7.74050 | 172.50136 | 38877 ft | 477 kts | 60° |
| 2026-05-08 12:45 | 7.77264 | 172.56032 | 38874 ft | 478 kts | 59° |
| 2026-05-08 12:45 | 7.80439 | 172.61856 | 38880 ft | 477 kts | 60° |
| 2026-05-08 12:46 | 7.83626 | 172.67703 | 38888 ft | 476 kts | 60° |
| 2026-05-08 12:46 | 7.86818 | 172.73567 | 38891 ft | 477 kts | 60° |
| 2026-05-08 12:47 | 7.90020 | 172.79448 | 38882 ft | 477 kts | 60° |
| 2026-05-08 12:47 | 7.93200 | 172.85292 | 38878 ft | 478 kts | 59° |
| 2026-05-08 12:48 | 7.96391 | 172.91161 | 38880 ft | 477 kts | 59° |
| 2026-05-08 12:48 | 7.99576 | 172.97017 | 38887 ft | 477 kts | 59° |
| 2026-05-08 12:49 | 8.02769 | 173.02887 | 38892 ft | 478 kts | 59° |
| 2026-05-08 12:49 | 8.05964 | 173.08771 | 38886 ft | 479 kts | 59° |
| 2026-05-08 12:50 | 8.09176 | 173.14687 | 38877 ft | 479 kts | 59° |
| 2026-05-08 12:50 | 8.12364 | 173.20560 | 38889 ft | 479 kts | 59° |
| 2026-05-08 12:51 | 8.17149 | 173.29378 | 38889 ft | 479 kts | 59° |
| 2026-05-08 12:52 | 8.20345 | 173.35271 | 38893 ft | 480 kts | 59° |
| 2026-05-08 12:52 | 8.25153 | 173.44144 | 38896 ft | 480 kts | 59° |
| 2026-05-08 12:53 | 8.28345 | 173.50037 | 38897 ft | 480 kts | 60° |
| 2026-05-08 12:53 | 8.31559 | 173.55974 | 38894 ft | 481 kts | 59° |
| 2026-05-08 12:54 | 8.34750 | 173.61868 | 38886 ft | 482 kts | 59° |
| 2026-05-08 12:54 | 8.37970 | 173.67822 | 38889 ft | 482 kts | 59° |
| 2026-05-08 12:55 | 8.41186 | 173.73767 | 38891 ft | 482 kts | 60° |
| 2026-05-08 12:55 | 8.44391 | 173.79698 | 38887 ft | 482 kts | 60° |
| 2026-05-08 12:56 | 8.47611 | 173.85660 | 38883 ft | 482 kts | 60° |
| 2026-05-08 12:56 | 8.50827 | 173.91615 | 38883 ft | 482 kts | 60° |
| 2026-05-08 12:57 | 8.54012 | 173.97517 | 38884 ft | 482 kts | 59° |
| 2026-05-08 12:57 | 8.57231 | 174.03482 | 38885 ft | 482 kts | 59° |
| 2026-05-08 12:58 | 8.60420 | 174.09398 | 38887 ft | 483 kts | 60° |
| 2026-05-08 12:58 | 8.63638 | 174.15367 | 38889 ft | 483 kts | 59° |
| 2026-05-08 12:59 | 8.66857 | 174.21339 | 38887 ft | 484 kts | 60° |
| 2026-05-08 12:59 | 8.70085 | 174.27336 | 38887 ft | 485 kts | 60° |
| 2026-05-08 13:00 | 8.73311 | 174.33330 | 38888 ft | 486 kts | 60° |
| 2026-05-08 13:00 | 8.76521 | 174.39296 | 38894 ft | 486 kts | 60° |
| 2026-05-08 13:01 | 8.79750 | 174.45302 | 38902 ft | 486 kts | 60° |
| 2026-05-08 13:01 | 8.82984 | 174.51317 | 38903 ft | 486 kts | 60° |
| 2026-05-08 13:02 | 8.86196 | 174.57294 | 38903 ft | 487 kts | 60° |
| 2026-05-08 13:02 | 8.89430 | 174.63318 | 38902 ft | 489 kts | 60° |
| 2026-05-08 13:03 | 8.92669 | 174.69354 | 38897 ft | 489 kts | 60° |
| 2026-05-08 13:03 | 8.95907 | 174.75388 | 38896 ft | 489 kts | 60° |
| 2026-05-08 13:04 | 8.99139 | 174.81413 | 38899 ft | 489 kts | 60° |
| 2026-05-08 13:04 | 9.02376 | 174.87453 | 38899 ft | 489 kts | 60° |
| 2026-05-08 13:05 | 9.05633 | 174.93532 | 38903 ft | 490 kts | 60° |
| 2026-05-08 13:05 | 9.08872 | 174.99582 | 38901 ft | 491 kts | 60° |
| 2026-05-08 13:06 | 9.12126 | 175.05662 | 38903 ft | 490 kts | 60° |
| 2026-05-08 13:06 | 9.15348 | 175.11685 | 38904 ft | 490 kts | 60° |
| 2026-05-08 13:07 | 9.18607 | 175.17780 | 38903 ft | 490 kts | 60° |